createdAt,value
2022-08-17T00:01:17.254Z,100535.53
2022-08-17T00:03:47.866Z,100530.78
2022-08-17T00:06:15.243Z,100533.56
2022-08-17T00:08:45.134Z,100531.94
2022-08-17T00:11:13.961Z,100533.88
2022-08-17T00:13:44.050Z,100533.88
2022-08-17T00:16:14.221Z,100529.97
2022-08-17T00:18:53.763Z,100525.53
2022-08-17T00:21:26.656Z,100525.53
2022-08-17T00:24:12.753Z,100527.50
2022-08-17T00:26:45.167Z,100524.72
2022-08-17T00:29:11.154Z,100529.16
2022-08-17T00:31:45.401Z,100526.38
2022-08-17T00:34:11.066Z,100528.31
2022-08-17T00:36:36.999Z,100523.59
2022-08-17T00:39:03.677Z,100526.38
2022-08-17T00:41:29.324Z,100526.38
2022-08-17T00:44:00.261Z,100523.91
2022-08-17T00:46:31.356Z,100523.59
2022-08-17T00:48:57.773Z,100519.16
2022-08-17T00:51:49.889Z,100516.38
2022-08-17T00:54:22.684Z,100509.97
2022-08-17T00:56:51.423Z,100511.94
2022-08-17T00:59:21.365Z,100510.78
2022-08-17T01:01:48.792Z,100504.41
2022-08-17T01:04:16.013Z,100505.22
2022-08-17T01:06:42.171Z,100511.59
2022-08-17T01:09:08.125Z,100498.03
2022-08-17T01:11:36.334Z,100500.00
2022-08-17T01:14:02.478Z,100496.88
2022-08-17T01:16:29.813Z,100497.22
2022-08-17T01:18:59.912Z,100498.03
2022-08-17T01:21:31.714Z,100500.81
2022-08-17T01:23:57.627Z,100505.22
2022-08-17T01:26:23.345Z,100502.78
2022-08-17T01:28:54.782Z,100509.16
2022-08-17T01:31:23.693Z,100513.56
2022-08-17T01:33:49.346Z,100507.19
2022-08-17T01:36:14.981Z,100501.97
2022-08-17T01:38:40.648Z,100500.00
2022-08-17T01:41:10.912Z,100502.78
2022-08-17T01:43:43.463Z,100494.44
2022-08-17T01:46:09.188Z,100494.44
2022-08-17T01:48:37.065Z,100500.00
2022-08-17T01:51:06.323Z,100500.00
2022-08-17T01:53:36.053Z,100497.22
2022-08-17T01:56:06.148Z,100501.97
2022-08-17T01:58:34.081Z,100501.97
2022-08-17T02:01:01.437Z,100490.81
2022-08-17T02:03:27.773Z,100502.78
2022-08-17T02:05:53.523Z,100496.41
2022-08-17T02:08:20.608Z,100491.97
2022-08-17T02:11:04.652Z,100491.97
2022-08-17T02:13:37.238Z,100497.56
2022-08-17T02:16:03.193Z,100493.63
2022-08-17T02:18:29.349Z,100495.59
2022-08-17T02:20:55.440Z,100501.16
2022-08-17T02:23:22.421Z,100494.75
2022-08-17T02:25:48.341Z,100492.81
2022-08-17T02:28:14.635Z,100495.59
2022-08-17T02:30:59.553Z,100498.38
2022-08-17T02:33:41.999Z,100501.16
2022-08-17T02:36:10.428Z,100502.28
2022-08-17T02:38:36.925Z,100502.28
2022-08-17T02:41:02.833Z,100500.34
2022-08-17T02:43:28.456Z,100496.72
2022-08-17T02:45:54.437Z,100502.28
2022-08-17T02:48:30.977Z,100494.75
2022-08-17T02:50:57.128Z,100487.22
2022-08-17T02:53:22.780Z,100497.84
2022-08-17T02:55:48.393Z,100491.13
2022-08-17T02:58:14.072Z,100498.66
2022-08-17T03:00:42.630Z,100490.31
2022-08-17T03:03:10.208Z,100497.56
2022-08-17T03:05:37.472Z,100498.66
2022-08-17T03:08:04.377Z,100490.31
2022-08-17T03:10:30.284Z,100483.94
2022-08-17T03:12:55.922Z,100493.09
2022-08-17T03:15:25.232Z,100483.94
2022-08-17T03:17:51.894Z,100484.75
2022-08-17T03:20:18.865Z,100483.94
2022-08-17T03:22:53.401Z,100483.13
2022-08-17T03:25:23.904Z,100483.94
2022-08-17T03:27:50.277Z,100483.94
2022-08-17T03:30:17.256Z,100480.34
2022-08-17T03:32:45.449Z,100478.38
2022-08-17T03:35:11.404Z,100473.13
2022-08-17T03:37:38.584Z,100475.94
2022-08-17T03:40:06.909Z,100480.34
2022-08-17T03:42:33.325Z,100480.34
2022-08-17T03:44:59.755Z,100471.19
2022-08-17T03:47:45.409Z,100480.34
2022-08-17T03:50:31.940Z,100477.56
2022-08-17T03:53:17.489Z,100479.53
2022-08-17T03:56:03.029Z,100475.94
2022-08-17T03:58:28.705Z,100486.25
2022-08-17T04:00:54.449Z,100495.41
2022-08-17T04:03:20.090Z,100488.69
2022-08-17T04:05:45.773Z,100496.22
2022-08-17T04:08:11.482Z,100499.81
2022-08-17T04:10:41.370Z,100496.22
2022-08-17T04:13:11.511Z,100494.59
2022-08-17T04:15:37.169Z,100496.22
2022-08-17T04:18:02.898Z,100495.41
2022-08-17T04:20:28.684Z,100491.81
2022-08-17T04:22:56.596Z,100493.78
2022-08-17T04:25:23.082Z,100497.38
2022-08-17T04:27:48.715Z,100502.13
2022-08-17T04:30:14.626Z,100505.72
2022-08-17T04:33:06.259Z,100513.28
2022-08-17T04:35:36.393Z,100512.44
2022-08-17T04:38:03.188Z,100512.13
2022-08-17T04:40:48.714Z,100523.25
2022-08-17T04:43:18.750Z,100519.66
2022-08-17T04:45:54.984Z,100519.66
2022-08-17T04:48:21.824Z,100524.41
2022-08-17T04:50:48.970Z,100518.84
2022-08-17T04:53:16.001Z,100516.06
2022-08-17T04:55:41.695Z,100526.38
2022-08-17T04:58:07.348Z,100522.75
2022-08-17T05:00:33.621Z,100529.16
2022-08-17T05:02:59.377Z,100525.22
2022-08-17T05:05:29.229Z,100520.81
2022-08-17T05:08:00.400Z,100516.06
2022-08-17T05:10:28.407Z,100513.28
2022-08-17T05:12:58.448Z,100511.31
2022-08-17T05:15:24.096Z,100511.59
2022-08-17T05:17:49.730Z,100515.53
2022-08-17T05:20:15.620Z,100516.34
2022-08-17T05:22:50.399Z,100513.28
2022-08-17T05:25:24.959Z,100517.19
2022-08-17T05:27:52.578Z,100519.97
2022-08-17T05:30:18.269Z,100509.16
2022-08-17T05:33:05.124Z,100509.97
2022-08-17T05:35:33.497Z,100517.19
2022-08-17T05:38:00.059Z,100531.44
2022-08-17T05:40:26.259Z,100568.59
2022-08-17T05:43:15.788Z,100573.03
2022-08-17T05:48:39.131Z,100575.00
2022-08-17T05:51:20.146Z,100552.38
2022-08-17T05:53:57.234Z,100566.63
2022-08-17T05:56:44.706Z,100568.78
2022-08-17T05:59:50.138Z,100568.13
2022-08-17T06:02:43.027Z,100563.22
2022-08-17T06:05:35.943Z,100572.03
2022-08-17T06:08:32.020Z,100557.31
2022-08-17T06:11:13.886Z,100568.97
2022-08-17T06:14:07.297Z,100571.75
2022-08-17T06:16:36.129Z,100576.50
2022-08-17T06:19:06.033Z,100577.31
2022-08-17T06:21:35.432Z,100575.00
2022-08-17T06:24:06.746Z,100566.97
2022-08-17T06:26:38.432Z,100565.84
2022-08-17T06:29:44.517Z,100568.63
2022-08-17T06:32:12.622Z,100560.25
2022-08-17T06:34:39.016Z,100568.63
2022-08-17T06:37:28.319Z,100570.25
2022-08-17T06:40:33.745Z,100570.25
2022-08-17T06:43:38.421Z,100573.03
2022-08-17T06:46:10.524Z,100576.31
2022-08-17T06:48:41.974Z,100575.50
2022-08-17T06:54:32.888Z,100588.94
2022-08-17T06:59:56.048Z,100594.84
2022-08-17T07:02:52.040Z,100598.09
2022-08-17T07:05:21.021Z,100600.06
2022-08-17T07:08:07.223Z,100606.28
2022-08-17T07:10:40.470Z,100605.97
2022-08-17T07:13:29.511Z,100606.44
2022-08-17T07:16:03.837Z,100601.41
2022-08-17T07:18:32.264Z,100610.88
2022-08-17T07:21:06.546Z,100617.59
2022-08-17T07:23:43.847Z,100620.38
2022-08-17T07:26:09.479Z,100625.13
2022-08-17T07:28:35.751Z,100620.38
2022-08-17T07:31:03.796Z,100611.22
2022-08-17T07:33:29.876Z,100613.34
2022-08-17T07:35:57.249Z,100605.81
2022-08-17T07:38:27.753Z,100607.94
2022-08-17T07:43:35.048Z,100601.88
2022-08-17T07:46:42.705Z,100597.13
2022-08-17T07:57:16.944Z,100615.97
2022-08-17T08:00:05.268Z,100629.41
2022-08-17T08:02:40.530Z,100637.44
2022-08-17T08:05:48.769Z,100643.81
2022-08-17T08:08:24.372Z,100646.59
2022-08-17T08:10:59.147Z,100647.09
2022-08-17T08:13:29.039Z,100635.81
2022-08-17T08:16:10.663Z,100638.88
2022-08-17T08:18:55.732Z,100646.13
2022-08-17T08:24:31.233Z,100654.47
2022-08-17T08:27:26.370Z,100651.69
2022-08-17T08:32:53.261Z,100645.78
2022-08-17T08:35:28.735Z,100660.19
2022-08-17T08:38:22.602Z,100658.72
2022-08-17T08:41:28.831Z,100663.50
2022-08-17T08:44:05.619Z,100665.75
2022-08-17T08:46:57.724Z,100655.13
2022-08-17T08:50:06.092Z,100657.91
2022-08-17T08:52:41.351Z,100655.13
2022-08-17T08:55:15.990Z,100652.34
2022-08-17T08:57:48.009Z,100657.91
2022-08-17T09:00:16.482Z,100661.53
2022-08-17T09:03:31.708Z,100653.97
2022-08-17T09:06:37.558Z,100655.13
2022-08-17T09:09:23.498Z,100655.59
2022-08-17T09:12:02.139Z,100653.63
2022-08-17T09:14:46.631Z,100647.25
2022-08-17T09:17:28.105Z,100658.09
2022-08-17T09:19:59.363Z,100651.69
2022-08-17T09:22:33.894Z,100655.31
2022-08-17T09:25:13.787Z,100649.41
2022-08-17T09:27:56.470Z,100660.53
2022-08-17T09:30:29.071Z,100654.97
2022-08-17T09:32:58.384Z,100651.03
2022-08-17T09:35:36.930Z,100656.94
2022-08-17T09:38:41.893Z,100662.16
2022-08-17T09:41:17.374Z,100676.91
2022-08-17T09:43:50.102Z,100676.91
2022-08-17T09:46:38.969Z,100671.34
2022-08-17T09:49:14.185Z,100668.25
2022-08-17T09:51:45.019Z,100671.03
2022-08-17T09:54:38.762Z,100677.09
2022-08-17T09:57:30.035Z,100666.94
2022-08-17T10:00:15.450Z,100673.31
2022-08-17T10:03:08.766Z,100666.66
2022-08-17T10:06:00.189Z,100678.91
2022-08-17T10:08:51.335Z,100679.88
2022-08-17T10:14:36.619Z,100681.69
2022-08-17T10:16:55.569Z,100684.47
2022-08-17T10:22:34.586Z,100698.41
2022-08-17T10:25:26.123Z,100697.56
2022-08-17T10:28:01.771Z,100704.78
2022-08-17T10:30:31.011Z,100698.72
2022-08-17T10:32:59.855Z,100697.91
2022-08-17T10:35:37.360Z,100702.00
2022-08-17T10:38:32.650Z,100703.97
2022-08-17T10:41:14.267Z,100711.19
2022-08-17T10:44:37.146Z,100712.81
2022-08-17T10:47:16.611Z,100714.13
2022-08-17T10:49:48.637Z,100710.69
2022-08-17T10:52:44.085Z,100701.19
2022-08-17T10:55:16.698Z,100692.00
2022-08-17T10:57:46.250Z,100683.34
2022-08-17T11:03:20.216Z,100652.81
2022-08-17T11:05:57.991Z,100647.25
2022-08-17T11:08:56.667Z,100643.50
2022-08-17T11:11:46.655Z,100636.78
2022-08-17T11:14:24.838Z,100638.44
2022-08-17T11:17:05.467Z,100646.44
2022-08-17T11:19:55.297Z,100653.19
2022-08-17T11:22:42.674Z,100649.22
2022-08-17T11:25:14.265Z,100647.25
2022-08-17T11:27:40.571Z,100650.88
2022-08-17T11:30:11.096Z,100654.50
2022-08-17T11:32:52.012Z,100674.81
2022-08-17T11:38:24.879Z,100686.28
2022-08-17T11:41:19.470Z,100690.53
2022-08-17T11:43:55.540Z,100687.09
2022-08-17T11:46:51.877Z,100689.56
2022-08-17T11:49:45.437Z,100694.81
2022-08-17T11:52:34.111Z,100693.97
2022-08-17T11:55:17.722Z,100696.78
2022-08-17T11:57:54.659Z,100695.97
2022-08-17T12:00:49.114Z,100700.38
2022-08-17T12:03:25.521Z,100716.81
2022-08-17T12:06:00.912Z,100713.19
2022-08-17T12:08:29.434Z,100714.31
2022-08-17T12:11:15.835Z,100714.31
2022-08-17T12:13:44.955Z,100715.97
2022-08-17T12:16:20.047Z,100711.25
2022-08-17T12:18:57.735Z,100714.03
2022-08-17T12:21:49.710Z,100726.00
2022-08-17T12:24:38.798Z,100721.25
2022-08-17T12:27:06.303Z,100724.84
2022-08-17T12:29:35.727Z,100723.69
2022-08-17T12:32:06.112Z,100725.66
2022-08-17T12:34:36.346Z,100725.66
2022-08-17T12:37:06.985Z,100728.78
2022-08-17T12:39:34.045Z,100730.41
2022-08-17T12:42:02.585Z,100725.19
2022-08-17T12:44:32.713Z,100721.25
2022-08-17T12:47:08.758Z,100723.47
2022-08-17T12:49:37.455Z,100724.84
2022-08-17T12:52:15.281Z,100729.59
2022-08-17T12:55:01.033Z,100726.81
2022-08-17T12:57:32.594Z,100719.59
2022-08-17T13:00:07.374Z,100716.81
2022-08-17T13:02:50.905Z,100716.47
2022-08-17T13:05:35.590Z,100713.19
2022-08-17T13:08:05.002Z,100712.88
2022-08-17T13:10:34.938Z,100720.41
2022-08-17T13:13:05.141Z,100724.03
2022-08-17T13:15:37.305Z,100725.19
2022-08-17T13:24:00.719Z,100741.44
2022-08-17T13:26:34.782Z,100743.63
2022-08-17T13:29:04.557Z,100743.16
2022-08-17T13:31:40.247Z,100742.81
2022-08-17T13:37:28.046Z,100728.41
2022-08-17T13:42:53.599Z,100714.03
2022-08-17T13:45:40.225Z,100711.25
2022-08-17T13:48:15.658Z,100716.81
2022-08-17T13:56:38.902Z,100721.53
2022-08-17T13:59:08.999Z,100720.91
2022-08-17T14:01:41.496Z,100725.66
2022-08-17T14:04:10.142Z,100724.03
2022-08-17T14:09:37.456Z,100730.88
2022-08-17T14:12:07.918Z,100736.81
2022-08-17T14:14:33.550Z,100728.44
2022-08-17T14:16:59.193Z,100725.66
2022-08-17T14:19:25.310Z,100713.34
2022-08-17T14:21:51.479Z,100714.16
2022-08-17T14:24:34.367Z,100707.47
2022-08-17T14:27:02.449Z,100705.00
2022-08-17T14:29:28.660Z,100710.25
2022-08-17T14:31:55.210Z,100714.16
2022-08-17T14:34:22.256Z,100710.25
2022-08-17T14:36:48.410Z,100716.66
2022-08-17T14:39:15.108Z,100707.47
2022-08-17T14:41:41.267Z,100712.72
2022-08-17T14:44:11.474Z,100707.47
2022-08-17T14:46:39.931Z,100702.22
2022-08-17T14:49:06.618Z,100695.00
2022-08-17T14:51:32.355Z,100695.81
2022-08-17T14:53:58.030Z,100704.19
2022-08-17T14:56:24.302Z,100698.59
2022-08-17T14:58:51.002Z,100699.41
2022-08-17T15:01:18.087Z,100697.78
2022-08-17T15:03:43.761Z,100690.25
2022-08-17T15:06:11.156Z,100694.19
2022-08-17T15:08:38.199Z,100695.81
2022-08-17T15:11:03.946Z,100685.81
2022-08-17T15:13:30.034Z,100686.97
2022-08-17T15:15:56.638Z,100670.25
2022-08-17T15:18:22.355Z,100675.84
2022-08-17T15:20:49.190Z,100668.59
2022-08-17T15:23:18.034Z,100675.84
2022-08-17T15:25:44.266Z,100662.72
2022-08-17T15:28:10.058Z,100674.19
2022-08-17T15:30:35.696Z,100677.81
2022-08-17T15:33:01.782Z,100661.38
2022-08-17T15:35:31.097Z,100666.31
2022-08-17T15:38:00.087Z,100661.91
2022-08-17T15:40:33.691Z,100663.88
2022-08-17T15:43:07.321Z,100657.16
2022-08-17T15:45:33.028Z,100650.75
2022-08-17T15:47:59.270Z,100662.72
2022-08-17T15:50:25.197Z,100664.69
2022-08-17T15:52:59.342Z,100655.50
2022-08-17T15:55:27.084Z,100652.72
2022-08-17T15:57:53.294Z,100650.75
2022-08-17T16:00:19.593Z,100653.00
2022-08-17T16:03:45.011Z,100658.31
2022-08-17T16:05:33.245Z,100661.09
2022-08-17T16:07:58.926Z,100672.50
2022-08-17T16:10:34.728Z,100667.75
2022-08-17T16:13:01.587Z,100659.41
2022-08-17T16:15:30.255Z,100675.28
2022-08-17T16:17:56.271Z,100674.47
2022-08-17T16:20:21.939Z,100684.81
2022-08-17T16:22:48.669Z,100694.81
2022-08-17T16:25:17.974Z,100698.41
2022-08-17T16:27:44.893Z,100691.19
2022-08-17T16:30:16.891Z,100692.34
2022-08-17T16:32:43.299Z,100695.13
2022-08-17T16:35:11.134Z,100701.53
2022-08-17T16:37:38.736Z,100697.94
2022-08-17T16:40:06.018Z,100684.00
2022-08-17T16:42:33.242Z,100683.19
2022-08-17T16:45:07.250Z,100677.91
2022-08-17T16:47:32.920Z,100680.69
2022-08-17T16:49:58.601Z,100685.16
2022-08-17T16:52:32.853Z,100680.38
2022-08-17T16:54:59.980Z,100682.66
2022-08-17T16:57:25.795Z,100677.09
2022-08-17T16:59:52.603Z,100685.44
2022-08-17T17:02:35.507Z,100687.44
2022-08-17T17:05:29.674Z,100689.06
2022-08-17T17:08:04.138Z,100689.06
2022-08-17T17:10:36.904Z,100681.03
2022-08-17T17:13:04.864Z,100683.00
2022-08-17T17:15:33.633Z,100683.81
2022-08-17T17:18:06.079Z,100682.50
2022-08-17T17:20:39.583Z,100686.94
2022-08-17T17:23:11.352Z,100685.78
2022-08-17T17:26:01.600Z,100685.78
2022-08-17T17:28:39.692Z,100698.09
2022-08-17T17:31:11.898Z,100691.69
2022-08-17T17:33:42.357Z,100691.69
2022-08-17T17:36:33.862Z,100692.53
2022-08-17T17:39:07.621Z,100685.28
2022-08-17T17:41:41.326Z,100693.63
2022-08-17T17:44:11.289Z,100681.69
2022-08-17T17:46:44.111Z,100693.63
2022-08-17T17:49:10.418Z,100701.19
2022-08-17T17:54:44.619Z,100705.94
2022-08-17T17:57:23.755Z,100713.47
2022-08-17T18:00:12.810Z,100707.91
2022-08-17T18:02:51.442Z,100712.66
2022-08-17T18:05:57.751Z,100718.22
2022-08-17T18:08:36.972Z,100716.25
2022-08-17T18:11:24.178Z,100717.41
2022-08-17T18:13:58.680Z,100717.41
2022-08-17T18:16:26.038Z,100720.19
2022-08-17T18:18:52.679Z,100709.38
2022-08-17T18:21:21.574Z,100708.25
2022-08-17T18:23:55.351Z,100718.56
2022-08-17T18:26:44.966Z,100717.72
2022-08-17T18:29:22.388Z,100722.47
2022-08-17T18:31:51.582Z,100723.28
2022-08-17T18:34:43.727Z,100719.69
2022-08-17T18:37:08.583Z,100731.66
2022-08-17T18:39:36.220Z,100737.22
2022-08-17T18:42:23.691Z,100738.38
2022-08-17T18:44:54.315Z,100743.94
2022-08-17T18:47:24.295Z,100741.16
2022-08-17T18:49:56.638Z,100743.94
2022-08-17T18:52:28.781Z,100745.91
2022-08-17T18:55:20.137Z,100761.47
2022-08-17T18:57:51.764Z,100757.06
2022-08-17T19:00:32.058Z,100772.63
2022-08-17T19:03:00.679Z,100784.91
2022-08-17T19:05:31.290Z,100779.34
2022-08-17T19:10:58.453Z,100783.28
2022-08-17T19:13:28.716Z,100782.47
2022-08-17T19:18:51.058Z,100792.78
2022-08-17T19:21:22.103Z,100801.97
2022-08-17T19:24:10.715Z,100796.41
2022-08-17T19:26:53.473Z,100793.91
2022-08-17T19:29:30.648Z,100798.38
2022-08-17T19:31:57.635Z,100794.72
2022-08-17T19:34:33.485Z,100796.69
2022-08-17T19:37:06.638Z,100790.81
2022-08-17T19:39:47.065Z,100788.34
2022-08-17T19:42:40.387Z,100795.88
2022-08-17T19:48:02.630Z,100787.53
2022-08-17T19:50:52.869Z,100779.97
2022-08-17T19:54:05.890Z,100783.09
2022-08-17T19:56:49.439Z,100782.28
2022-08-17T19:59:47.880Z,100785.06
2022-08-17T20:02:37.030Z,100798.19
2022-08-17T20:05:10.519Z,100801.78
2022-08-17T20:07:54.679Z,100800.16
2022-08-17T20:10:54.454Z,100807.34
2022-08-17T20:13:33.595Z,100803.75
2022-08-17T20:16:00.260Z,100811.28
2022-08-17T20:18:35.864Z,100810.47
2022-08-17T20:21:31.151Z,100802.13
2022-08-17T20:24:25.557Z,100806.84
2022-08-17T20:26:58.620Z,100806.03
2022-08-17T20:29:37.251Z,100803.22
2022-08-17T20:32:14.059Z,100818.81
2022-08-17T20:34:39.714Z,100817.16
2022-08-17T20:42:31.102Z,100818.31
2022-08-17T20:45:02.117Z,100821.09
2022-08-17T20:47:34.785Z,100821.09
2022-08-17T20:50:06.727Z,100817.16
2022-08-17T20:52:43.882Z,100812.75
2022-08-17T20:55:52.595Z,100809.97
2022-08-17T21:03:49.959Z,100823.06
2022-08-17T21:06:19.469Z,100822.25
2022-08-17T21:12:03.849Z,100823.41
2022-08-17T21:17:35.665Z,100824.22
2022-08-17T21:20:24.427Z,100827.00
2022-08-17T21:23:07.588Z,100821.44
2022-08-17T21:25:48.460Z,100823.41
2022-08-17T21:28:30.130Z,100823.41
2022-08-17T21:31:07.480Z,100830.09
2022-08-17T21:33:36.234Z,100830.91
2022-08-17T21:36:22.924Z,100830.09
2022-08-17T21:41:29.298Z,100826.50
2022-08-17T21:44:04.242Z,100834.84
2022-08-17T21:46:36.052Z,100836.81
2022-08-17T21:49:09.138Z,100835.66
2022-08-17T21:51:43.979Z,100839.59
2022-08-17T21:54:30.929Z,100834.03
2022-08-17T21:56:57.903Z,100835.19
2022-08-17T21:59:26.531Z,100832.06
2022-08-17T22:01:55.141Z,100836.00
2022-08-17T22:04:31.221Z,100830.44
2022-08-17T22:06:59.456Z,100845.16
2022-08-17T22:09:28.987Z,100837.97
2022-08-17T22:11:58.260Z,100837.97
2022-08-17T22:14:51.714Z,100837.16
2022-08-17T22:17:29.359Z,100849.09
2022-08-17T22:19:59.757Z,100854.66
2022-08-17T22:23:08.542Z,100855.81
2022-08-17T22:25:39.813Z,100841.06
2022-08-17T22:28:09.580Z,100855.81
2022-08-17T22:33:37.188Z,100868.94
2022-08-17T22:36:25.149Z,100857.78
2022-08-17T22:38:55.436Z,100855.00
2022-08-17T22:41:30.996Z,100860.56
2022-08-17T22:44:01.523Z,100861.69
2022-08-17T22:46:28.287Z,100859.72
2022-08-17T22:48:57.024Z,100857.78
2022-08-17T22:51:27.136Z,100865.28
2022-08-17T22:54:16.709Z,100861.69
2022-08-17T22:57:08.245Z,100866.44
2022-08-17T22:59:41.476Z,100864.47
2022-08-17T23:02:28.080Z,100858.91
2022-08-17T23:07:51.932Z,100856.13
2022-08-17T23:10:17.756Z,100859.72
2022-08-17T23:12:43.393Z,100857.28
2022-08-17T23:15:13.555Z,100865.63
2022-08-17T23:17:41.067Z,100868.41
2022-08-17T23:20:11.200Z,100860.06
2022-08-17T23:22:37.341Z,100862.84
2022-08-17T23:25:03.917Z,100858.41
2022-08-17T23:27:29.580Z,100862.84
2022-08-17T23:29:55.267Z,100861.19
2022-08-17T23:32:21.433Z,100860.06
2022-08-17T23:34:48.584Z,100855.63
2022-08-17T23:37:15.908Z,100866.78
2022-08-17T23:39:44.087Z,100863.16
2022-08-17T23:42:15.876Z,100872.66
2022-08-17T23:44:42.838Z,100875.13
2022-08-17T23:47:09.335Z,100879.06
2022-08-17T23:49:35.502Z,100877.09
2022-08-17T23:52:02.889Z,100865.13
2022-08-17T23:54:33.900Z,100866.78
2022-08-17T23:57:00.823Z,100875.13
2022-08-17T23:59:26.673Z,100877.09
